Airfield :
LOGIN :

Register | Disclaimer

   EN    FR    IT 

 










Legend :    VFR   Marginal VFR   IFR   Intensive IFR   Very Intensive IFR
Visi :
Ceiling :
>= 8 km
>= 3000ft
5 to 8 km
1000 to 3000 ft
1500m to 5 km
500 to 1000 ft
800 to 1500m
200 to 500 ft
< 800m
< 200 ft
Symbols :   Thunderstorms  Fog  Heavy snow  Heavy precipitations  Wind > 20 kt
SIGMETs :     Misc.  Thunderstorms  Icing  Turbulence  Mountain Waves  Volcanic Ashes






- Airport Elevation : 656 ft


UUBC - Grabtsevo

CURRENT METAR :
  • 051100Z 30006MPS 270V330 9999 SCT030CB 06/M06 Q1023 R31/190055 NOSIG RMK QFE750/1000

EXPIRED METARs :
  • 051030Z 30003MPS 270V330 9999 -SHSN BKN015CB OVC043 03/M04 Q1023 R31/190055 TEMPO 1000 SHSN BKN007CB RMK QFE750/1000
  • 051000Z 33010G16MPS 9000 -SHSN BKN030CB OVC043 03/M03 Q1023 R31/190055 TEMPO 1000 SHSN BKN008CB RMK QFE750/1001
  • 050930Z 30008MPS 270V330 9999 SCT030CB BKN043 05/M08 Q1022 R31/190055 TEMPO 1000 SHSN BKN008CB RMK QFE750/1000
  • 050900Z 29006MPS 260V320 9999 BKN030CB OVC043 06/M05 Q1023 R31/190055 TEMPO 1000 SHSN BKN008CB RMK QFE750/1000
  • 050830Z 29005MPS 270V330 9999 BKN033 05/M04 Q1023 R31/190055 NOSIG RMK QFE750/1001

TAF TAF UUBC
Valid from the 05 at 09:00 until the 05 at 18:00 UTC


050745Z 0509/0518 30006G11MPS 9999 BKN011
TEMPO 0509/0515 33009G14MPS 3100 -SHSNRA BKN012CB



MET'MAP, your aeronautical weather chart ! - Copyright ORBIFLY December 2007 - Disclaimer

ORBIFLY MET'MAP TEAM :

Programming & Development : Alexandra Zaïnal
Concept & original design : Baudouin d'Aumeries
Assistance for programming : Marc-Olivier Méhu
Technical & hardware support : Manuel Goepfert

Contact : metmap@orbifly.com




SOURCES & CREDITS :

   NOAA